sensor_id;sensor_type;location;lat;lon;timestamp;P1;durP1;ratioP1;P2;durP2;ratioP2
52057;SDS011;38063;53.210;6.504;2022-11-09T00:01:40;3.95;;;1.23;;
52057;SDS011;38063;53.210;6.504;2022-11-09T00:04:06;5.25;;;1.58;;
52057;SDS011;38063;53.210;6.504;2022-11-09T00:06:32;5.13;;;1.85;;
52057;SDS011;38063;53.210;6.504;2022-11-09T00:08:59;5.38;;;1.58;;
52057;SDS011;38063;53.210;6.504;2022-11-09T00:11:25;6.72;;;2.17;;
52057;SDS011;38063;53.210;6.504;2022-11-09T00:13:51;5.55;;;1.60;;
52057;SDS011;38063;53.210;6.504;2022-11-09T00:16:17;2.97;;;1.60;;
52057;SDS011;38063;53.210;6.504;2022-11-09T00:18:45;8.23;;;2.13;;
52057;SDS011;38063;53.210;6.504;2022-11-09T00:21:13;5.80;;;2.08;;
52057;SDS011;38063;53.210;6.504;2022-11-09T00:23:40;5.57;;;2.70;;
52057;SDS011;38063;53.210;6.504;2022-11-09T00:26:06;6.45;;;2.70;;
52057;SDS011;38063;53.210;6.504;2022-11-09T00:28:34;3.53;;;2.10;;
52057;SDS011;38063;53.210;6.504;2022-11-09T00:31:00;6.40;;;2.20;;
52057;SDS011;38063;53.210;6.504;2022-11-09T00:33:34;4.43;;;2.55;;
52057;SDS011;38063;53.210;6.504;2022-11-09T00:36:04;7.40;;;2.22;;
52057;SDS011;38063;53.210;6.504;2022-11-09T00:38:35;4.22;;;2.22;;
52057;SDS011;38063;53.210;6.504;2022-11-09T00:41:03;5.70;;;2.25;;
52057;SDS011;38063;53.210;6.504;2022-11-09T00:43:29;4.00;;;2.08;;
52057;SDS011;38063;53.210;6.504;2022-11-09T00:45:55;4.22;;;2.00;;
52057;SDS011;38063;53.210;6.504;2022-11-09T00:48:21;3.38;;;2.00;;
52057;SDS011;38063;53.210;6.504;2022-11-09T00:50:50;9.35;;;3.10;;
52057;SDS011;38063;53.210;6.504;2022-11-09T00:53:17;6.35;;;2.90;;
52057;SDS011;38063;53.210;6.504;2022-11-09T00:55:57;5.10;;;2.60;;
52057;SDS011;38063;53.210;6.504;2022-11-09T00:58:27;6.45;;;3.08;;
52057;SDS011;38063;53.210;6.504;2022-11-09T01:00:56;8.65;;;2.60;;
52057;SDS011;38063;53.210;6.504;2022-11-09T01:03:23;5.82;;;2.67;;
52057;SDS011;38063;53.210;6.504;2022-11-09T01:05:49;10.00;;;3.10;;
52057;SDS011;38063;53.210;6.504;2022-11-09T01:08:15;7.20;;;3.13;;
52057;SDS011;38063;53.210;6.504;2022-11-09T01:10:42;6.75;;;2.67;;
52057;SDS011;38063;53.210;6.504;2022-11-09T01:13:09;5.53;;;3.08;;
52057;SDS011;38063;53.210;6.504;2022-11-09T01:15:41;7.30;;;3.03;;
52057;SDS011;38063;53.210;6.504;2022-11-09T01:18:08;8.35;;;2.53;;
52057;SDS011;38063;53.210;6.504;2022-11-09T01:20:37;8.65;;;3.00;;
52057;SDS011;38063;53.210;6.504;2022-11-09T01:23:04;7.40;;;2.85;;
52057;SDS011;38063;53.210;6.504;2022-11-09T01:25:30;7.57;;;2.72;;
52057;SDS011;38063;53.210;6.504;2022-11-09T01:27:57;7.35;;;2.65;;
52057;SDS011;38063;53.210;6.504;2022-11-09T01:30:23;6.97;;;2.58;;
52057;SDS011;38063;53.210;6.504;2022-11-09T01:32:49;7.55;;;2.47;;
52057;SDS011;38063;53.210;6.504;2022-11-09T01:35:14;8.73;;;2.35;;
52057;SDS011;38063;53.210;6.504;2022-11-09T01:37:40;11.63;;;3.15;;
52057;SDS011;38063;53.210;6.504;2022-11-09T01:40:06;5.45;;;2.40;;
52057;SDS011;38063;53.210;6.504;2022-11-09T01:42:34;6.15;;;2.83;;
52057;SDS011;38063;53.210;6.504;2022-11-09T01:47:42;10.35;;;2.80;;
52057;SDS011;38063;53.210;6.504;2022-11-09T01:50:10;7.68;;;2.90;;
52057;SDS011;38063;53.210;6.504;2022-11-09T01:52:38;8.68;;;2.92;;
52057;SDS011;38063;53.210;6.504;2022-11-09T01:55:12;13.45;;;3.40;;
52057;SDS011;38063;53.210;6.504;2022-11-09T02:00:14;11.48;;;2.65;;
52057;SDS011;38063;53.210;6.504;2022-11-09T02:02:45;6.72;;;2.60;;
52057;SDS011;38063;53.210;6.504;2022-11-09T02:05:14;9.52;;;2.92;;
52057;SDS011;38063;53.210;6.504;2022-11-09T02:07:42;8.93;;;2.75;;
52057;SDS011;38063;53.210;6.504;2022-11-09T02:12:43;11.63;;;2.65;;
52057;SDS011;38063;53.210;6.504;2022-11-09T02:15:09;8.02;;;2.92;;
52057;SDS011;38063;53.210;6.504;2022-11-09T02:17:36;9.90;;;2.83;;
52057;SDS011;38063;53.210;6.504;2022-11-09T02:20:10;10.35;;;2.92;;
52057;SDS011;38063;53.210;6.504;2022-11-09T02:22:37;8.25;;;2.33;;
52057;SDS011;38063;53.210;6.504;2022-11-09T02:25:03;9.50;;;2.60;;
52057;SDS011;38063;53.210;6.504;2022-11-09T02:27:29;9.98;;;2.47;;
52057;SDS011;38063;53.210;6.504;2022-11-09T02:29:55;8.00;;;2.72;;
52057;SDS011;38063;53.210;6.504;2022-11-09T02:32:23;10.32;;;2.55;;
52057;SDS011;38063;53.210;6.504;2022-11-09T02:34:51;7.88;;;3.17;;
52057;SDS011;38063;53.210;6.504;2022-11-09T02:37:50;5.90;;;2.33;;
52057;SDS011;38063;53.210;6.504;2022-11-09T02:40:19;8.90;;;2.50;;
52057;SDS011;38063;53.210;6.504;2022-11-09T02:42:57;8.52;;;2.58;;
52057;SDS011;38063;53.210;6.504;2022-11-09T02:45:25;7.95;;;2.38;;
52057;SDS011;38063;53.210;6.504;2022-11-09T02:47:50;10.02;;;2.40;;
52057;SDS011;38063;53.210;6.504;2022-11-09T02:50:16;8.43;;;2.35;;
52057;SDS011;38063;53.210;6.504;2022-11-09T02:52:41;10.82;;;2.88;;
52057;SDS011;38063;53.210;6.504;2022-11-09T02:55:07;9.70;;;2.58;;
52057;SDS011;38063;53.210;6.504;2022-11-09T02:57:33;10.77;;;2.85;;
52057;SDS011;38063;53.210;6.504;2022-11-09T02:59:59;7.50;;;2.05;;
52057;SDS011;38063;53.210;6.504;2022-11-09T03:02:24;7.20;;;2.50;;
52057;SDS011;38063;53.210;6.504;2022-11-09T03:04:50;11.18;;;3.22;;
52057;SDS011;38063;53.210;6.504;2022-11-09T03:07:15;11.07;;;2.35;;
52057;SDS011;38063;53.210;6.504;2022-11-09T03:09:41;7.78;;;2.63;;
52057;SDS011;38063;53.210;6.504;2022-11-09T03:12:07;8.02;;;2.38;;
52057;SDS011;38063;53.210;6.504;2022-11-09T03:15:00;9.05;;;3.15;;
52057;SDS011;38063;53.210;6.504;2022-11-09T03:17:27;4.97;;;2.20;;
52057;SDS011;38063;53.210;6.504;2022-11-09T03:19:53;14.80;;;2.60;;
52057;SDS011;38063;53.210;6.504;2022-11-09T03:22:19;11.63;;;2.63;;
52057;SDS011;38063;53.210;6.504;2022-11-09T03:24:45;8.20;;;2.30;;
52057;SDS011;38063;53.210;6.504;2022-11-09T03:27:11;7.45;;;2.78;;
52057;SDS011;38063;53.210;6.504;2022-11-09T03:29:37;5.75;;;2.28;;
52057;SDS011;38063;53.210;6.504;2022-11-09T03:32:03;8.90;;;2.10;;
52057;SDS011;38063;53.210;6.504;2022-11-09T03:34:29;7.38;;;2.22;;
52057;SDS011;38063;53.210;6.504;2022-11-09T03:36:55;8.27;;;2.35;;
52057;SDS011;38063;53.210;6.504;2022-11-09T03:39:20;11.02;;;2.05;;
52057;SDS011;38063;53.210;6.504;2022-11-09T03:41:46;14.00;;;2.65;;
52057;SDS011;38063;53.210;6.504;2022-11-09T03:44:12;9.25;;;2.22;;
52057;SDS011;38063;53.210;6.504;2022-11-09T03:46:37;11.93;;;2.40;;
52057;SDS011;38063;53.210;6.504;2022-11-09T03:49:03;8.55;;;2.00;;
52057;SDS011;38063;53.210;6.504;2022-11-09T03:51:28;14.23;;;2.58;;
52057;SDS011;38063;53.210;6.504;2022-11-09T03:53:54;6.50;;;2.13;;
52057;SDS011;38063;53.210;6.504;2022-11-09T03:56:20;12.75;;;2.28;;
52057;SDS011;38063;53.210;6.504;2022-11-09T03:58:45;12.48;;;2.50;;
52057;SDS011;38063;53.210;6.504;2022-11-09T04:01:11;13.43;;;2.83;;
52057;SDS011;38063;53.210;6.504;2022-11-09T04:03:37;11.43;;;2.58;;
52057;SDS011;38063;53.210;6.504;2022-11-09T04:06:02;9.88;;;2.20;;
52057;SDS011;38063;53.210;6.504;2022-11-09T04:08:28;7.63;;;1.88;;
52057;SDS011;38063;53.210;6.504;2022-11-09T04:10:54;11.05;;;2.30;;
52057;SDS011;38063;53.210;6.504;2022-11-09T04:13:19;9.60;;;2.55;;
52057;SDS011;38063;53.210;6.504;2022-11-09T04:15:45;11.88;;;2.30;;
52057;SDS011;38063;53.210;6.504;2022-11-09T04:18:12;10.88;;;2.20;;
52057;SDS011;38063;53.210;6.504;2022-11-09T04:20:38;12.70;;;2.20;;
52057;SDS011;38063;53.210;6.504;2022-11-09T04:23:05;11.85;;;2.15;;
52057;SDS011;38063;53.210;6.504;2022-11-09T04:25:32;7.55;;;2.20;;
52057;SDS011;38063;53.210;6.504;2022-11-09T04:27:59;9.90;;;2.20;;
52057;SDS011;38063;53.210;6.504;2022-11-09T04:30:26;6.70;;;2.00;;
52057;SDS011;38063;53.210;6.504;2022-11-09T04:32:57;12.63;;;2.25;;
52057;SDS011;38063;53.210;6.504;2022-11-09T04:35:24;8.38;;;1.92;;
52057;SDS011;38063;53.210;6.504;2022-11-09T04:37:57;9.68;;;2.00;;
52057;SDS011;38063;53.210;6.504;2022-11-09T04:40:25;10.45;;;1.90;;
52057;SDS011;38063;53.210;6.504;2022-11-09T04:42:52;10.13;;;2.40;;
52057;SDS011;38063;53.210;6.504;2022-11-09T04:45:18;14.95;;;2.15;;
52057;SDS011;38063;53.210;6.504;2022-11-09T04:47:45;6.65;;;2.40;;
52057;SDS011;38063;53.210;6.504;2022-11-09T04:50:11;10.75;;;2.20;;
52057;SDS011;38063;53.210;6.504;2022-11-09T04:52:37;6.25;;;1.92;;
52057;SDS011;38063;53.210;6.504;2022-11-09T04:55:03;14.35;;;2.70;;
52057;SDS011;38063;53.210;6.504;2022-11-09T04:57:29;8.93;;;2.08;;
52057;SDS011;38063;53.210;6.504;2022-11-09T04:59:54;15.05;;;2.08;;
52057;SDS011;38063;53.210;6.504;2022-11-09T05:02:20;9.38;;;1.90;;
52057;SDS011;38063;53.210;6.504;2022-11-09T05:04:46;9.70;;;2.10;;
52057;SDS011;38063;53.210;6.504;2022-11-09T05:07:11;7.97;;;2.20;;
52057;SDS011;38063;53.210;6.504;2022-11-09T05:09:37;7.97;;;2.10;;
52057;SDS011;38063;53.210;6.504;2022-11-09T05:12:02;12.90;;;2.47;;
52057;SDS011;38063;53.210;6.504;2022-11-09T05:14:28;9.00;;;2.70;;
52057;SDS011;38063;53.210;6.504;2022-11-09T05:16:54;8.95;;;2.53;;
52057;SDS011;38063;53.210;6.504;2022-11-09T05:19:19;9.88;;;2.40;;
52057;SDS011;38063;53.210;6.504;2022-11-09T05:21:45;7.65;;;2.25;;
52057;SDS011;38063;53.210;6.504;2022-11-09T05:24:10;11.05;;;2.40;;
52057;SDS011;38063;53.210;6.504;2022-11-09T05:26:37;9.70;;;2.35;;
52057;SDS011;38063;53.210;6.504;2022-11-09T05:29:05;9.75;;;2.80;;
52057;SDS011;38063;53.210;6.504;2022-11-09T05:31:33;10.25;;;2.13;;
52057;SDS011;38063;53.210;6.504;2022-11-09T05:34:00;8.35;;;2.17;;
52057;SDS011;38063;53.210;6.504;2022-11-09T05:36:26;11.88;;;2.33;;
52057;SDS011;38063;53.210;6.504;2022-11-09T05:38:53;8.20;;;2.40;;
52057;SDS011;38063;53.210;6.504;2022-11-09T05:41:19;12.23;;;2.08;;
52057;SDS011;38063;53.210;6.504;2022-11-09T05:43:45;16.17;;;2.33;;
52057;SDS011;38063;53.210;6.504;2022-11-09T05:46:14;13.05;;;2.55;;
52057;SDS011;38063;53.210;6.504;2022-11-09T05:48:41;6.78;;;2.72;;
52057;SDS011;38063;53.210;6.504;2022-11-09T05:51:08;8.32;;;2.13;;
52057;SDS011;38063;53.210;6.504;2022-11-09T05:53:35;10.43;;;2.53;;
52057;SDS011;38063;53.210;6.504;2022-11-09T05:56:02;9.57;;;2.40;;
52057;SDS011;38063;53.210;6.504;2022-11-09T05:58:30;9.82;;;2.40;;
52057;SDS011;38063;53.210;6.504;2022-11-09T06:00:57;14.93;;;3.35;;
52057;SDS011;38063;53.210;6.504;2022-11-09T06:03:24;10.77;;;2.30;;
52057;SDS011;38063;53.210;6.504;2022-11-09T06:05:49;8.45;;;2.50;;
52057;SDS011;38063;53.210;6.504;2022-11-09T06:08:15;7.80;;;2.50;;
52057;SDS011;38063;53.210;6.504;2022-11-09T06:10:41;8.20;;;2.05;;
52057;SDS011;38063;53.210;6.504;2022-11-09T06:13:07;10.63;;;1.98;;
52057;SDS011;38063;53.210;6.504;2022-11-09T06:15:33;8.68;;;2.10;;
52057;SDS011;38063;53.210;6.504;2022-11-09T06:17:59;12.52;;;2.28;;
52057;SDS011;38063;53.210;6.504;2022-11-09T06:20:25;10.45;;;2.40;;
52057;SDS011;38063;53.210;6.504;2022-11-09T06:22:55;8.98;;;2.38;;
52057;SDS011;38063;53.210;6.504;2022-11-09T06:25:22;6.53;;;1.90;;
52057;SDS011;38063;53.210;6.504;2022-11-09T06:27:48;9.45;;;2.45;;
52057;SDS011;38063;53.210;6.504;2022-11-09T06:30:14;7.68;;;2.80;;
52057;SDS011;38063;53.210;6.504;2022-11-09T06:32:40;8.88;;;2.15;;
52057;SDS011;38063;53.210;6.504;2022-11-09T06:35:06;7.72;;;2.40;;
52057;SDS011;38063;53.210;6.504;2022-11-09T06:37:31;10.88;;;2.35;;
52057;SDS011;38063;53.210;6.504;2022-11-09T06:39:57;7.32;;;2.10;;
52057;SDS011;38063;53.210;6.504;2022-11-09T06:42:23;12.20;;;2.42;;
52057;SDS011;38063;53.210;6.504;2022-11-09T06:44:48;15.38;;;2.45;;
52057;SDS011;38063;53.210;6.504;2022-11-09T06:47:14;12.07;;;2.75;;
52057;SDS011;38063;53.210;6.504;2022-11-09T06:49:40;10.80;;;2.45;;
52057;SDS011;38063;53.210;6.504;2022-11-09T06:52:05;14.50;;;2.80;;
52057;SDS011;38063;53.210;6.504;2022-11-09T06:54:31;10.57;;;2.80;;
52057;SDS011;38063;53.210;6.504;2022-11-09T06:56:58;11.85;;;2.10;;
52057;SDS011;38063;53.210;6.504;2022-11-09T06:59:24;10.65;;;2.92;;
52057;SDS011;38063;53.210;6.504;2022-11-09T07:01:50;8.85;;;2.13;;
52057;SDS011;38063;53.210;6.504;2022-11-09T07:04:16;11.95;;;2.28;;
52057;SDS011;38063;53.210;6.504;2022-11-09T07:06:42;9.38;;;2.17;;
52057;SDS011;38063;53.210;6.504;2022-11-09T07:09:08;12.70;;;2.08;;
52057;SDS011;38063;53.210;6.504;2022-11-09T07:11:34;12.30;;;2.08;;
52057;SDS011;38063;53.210;6.504;2022-11-09T07:14:00;9.07;;;2.42;;
52057;SDS011;38063;53.210;6.504;2022-11-09T07:16:27;9.18;;;1.75;;
52057;SDS011;38063;53.210;6.504;2022-11-09T07:18:53;6.65;;;2.15;;
52057;SDS011;38063;53.210;6.504;2022-11-09T07:21:19;6.80;;;1.77;;
52057;SDS011;38063;53.210;6.504;2022-11-09T07:23:46;11.43;;;1.90;;
52057;SDS011;38063;53.210;6.504;2022-11-09T07:26:12;8.25;;;1.70;;
52057;SDS011;38063;53.210;6.504;2022-11-09T07:28:39;11.25;;;2.20;;
52057;SDS011;38063;53.210;6.504;2022-11-09T07:31:05;10.60;;;2.03;;
52057;SDS011;38063;53.210;6.504;2022-11-09T07:33:31;7.80;;;2.13;;
52057;SDS011;38063;53.210;6.504;2022-11-09T07:36:01;11.50;;;1.98;;
52057;SDS011;38063;53.210;6.504;2022-11-09T07:38:28;8.50;;;1.58;;
52057;SDS011;38063;53.210;6.504;2022-11-09T07:40:56;11.20;;;2.00;;
52057;SDS011;38063;53.210;6.504;2022-11-09T07:43:23;10.23;;;2.13;;
52057;SDS011;38063;53.210;6.504;2022-11-09T07:45:49;15.55;;;2.63;;
52057;SDS011;38063;53.210;6.504;2022-11-09T07:48:14;9.07;;;2.10;;
52057;SDS011;38063;53.210;6.504;2022-11-09T07:50:40;12.70;;;1.88;;
52057;SDS011;38063;53.210;6.504;2022-11-09T07:53:06;8.52;;;1.95;;
52057;SDS011;38063;53.210;6.504;2022-11-09T07:55:34;12.00;;;2.53;;
52057;SDS011;38063;53.210;6.504;2022-11-09T07:58:01;11.48;;;2.10;;
52057;SDS011;38063;53.210;6.504;2022-11-09T08:00:32;8.85;;;2.17;;
52057;SDS011;38063;53.210;6.504;2022-11-09T08:02:59;9.85;;;1.90;;
52057;SDS011;38063;53.210;6.504;2022-11-09T08:05:25;7.22;;;1.80;;
52057;SDS011;38063;53.210;6.504;2022-11-09T08:07:57;7.95;;;2.17;;
52057;SDS011;38063;53.210;6.504;2022-11-09T08:10:25;13.18;;;2.55;;
52057;SDS011;38063;53.210;6.504;2022-11-09T08:12:56;12.43;;;2.33;;
52057;SDS011;38063;53.210;6.504;2022-11-09T08:15:26;9.07;;;2.15;;
52057;SDS011;38063;53.210;6.504;2022-11-09T08:17:52;8.23;;;2.17;;
52057;SDS011;38063;53.210;6.504;2022-11-09T08:20:18;8.85;;;1.90;;
52057;SDS011;38063;53.210;6.504;2022-11-09T08:22:45;8.27;;;2.20;;
52057;SDS011;38063;53.210;6.504;2022-11-09T08:25:12;15.18;;;2.55;;
52057;SDS011;38063;53.210;6.504;2022-11-09T08:27:38;9.32;;;2.00;;
52057;SDS011;38063;53.210;6.504;2022-11-09T08:30:05;13.68;;;2.35;;
52057;SDS011;38063;53.210;6.504;2022-11-09T08:32:32;10.75;;;2.30;;
52057;SDS011;38063;53.210;6.504;2022-11-09T08:34:58;13.13;;;2.83;;
52057;SDS011;38063;53.210;6.504;2022-11-09T08:37:24;11.68;;;2.58;;
52057;SDS011;38063;53.210;6.504;2022-11-09T08:39:49;12.25;;;2.22;;
52057;SDS011;38063;53.210;6.504;2022-11-09T08:42:15;9.65;;;2.17;;
52057;SDS011;38063;53.210;6.504;2022-11-09T08:44:41;9.68;;;2.22;;
52057;SDS011;38063;53.210;6.504;2022-11-09T08:47:06;9.65;;;2.58;;
52057;SDS011;38063;53.210;6.504;2022-11-09T08:49:32;11.00;;;2.25;;
52057;SDS011;38063;53.210;6.504;2022-11-09T08:51:58;12.63;;;2.17;;
52057;SDS011;38063;53.210;6.504;2022-11-09T08:54:25;15.35;;;2.50;;
52057;SDS011;38063;53.210;6.504;2022-11-09T08:56:53;9.95;;;2.60;;
52057;SDS011;38063;53.210;6.504;2022-11-09T08:59:19;13.15;;;2.10;;
52057;SDS011;38063;53.210;6.504;2022-11-09T09:01:45;12.50;;;2.35;;
52057;SDS011;38063;53.210;6.504;2022-11-09T09:04:11;12.25;;;2.20;;
52057;SDS011;38063;53.210;6.504;2022-11-09T09:06:36;10.00;;;2.15;;
52057;SDS011;38063;53.210;6.504;2022-11-09T09:09:02;13.82;;;2.50;;
52057;SDS011;38063;53.210;6.504;2022-11-09T09:11:28;12.30;;;2.55;;
52057;SDS011;38063;53.210;6.504;2022-11-09T09:13:53;12.57;;;2.53;;
52057;SDS011;38063;53.210;6.504;2022-11-09T09:16:19;16.30;;;2.72;;
52057;SDS011;38063;53.210;6.504;2022-11-09T09:18:46;11.68;;;2.65;;
52057;SDS011;38063;53.210;6.504;2022-11-09T09:21:12;9.95;;;2.85;;
52057;SDS011;38063;53.210;6.504;2022-11-09T09:23:38;8.68;;;2.10;;
52057;SDS011;38063;53.210;6.504;2022-11-09T09:26:04;9.32;;;2.40;;
52057;SDS011;38063;53.210;6.504;2022-11-09T09:28:29;11.00;;;2.20;;
52057;SDS011;38063;53.210;6.504;2022-11-09T09:30:59;17.42;;;2.35;;
52057;SDS011;38063;53.210;6.504;2022-11-09T09:33:25;8.48;;;2.63;;
52057;SDS011;38063;53.210;6.504;2022-11-09T09:35:54;17.42;;;2.78;;
52057;SDS011;38063;53.210;6.504;2022-11-09T09:38:20;11.50;;;2.20;;
52057;SDS011;38063;53.210;6.504;2022-11-09T09:43:41;12.30;;;2.10;;
52057;SDS011;38063;53.210;6.504;2022-11-09T09:46:17;12.10;;;2.47;;
52057;SDS011;38063;53.210;6.504;2022-11-09T09:48:53;7.15;;;2.40;;
52057;SDS011;38063;53.210;6.504;2022-11-09T09:51:26;13.85;;;2.50;;
52057;SDS011;38063;53.210;6.504;2022-11-09T09:53:54;9.25;;;2.17;;
52057;SDS011;38063;53.210;6.504;2022-11-09T09:56:29;9.95;;;2.55;;
52057;SDS011;38063;53.210;6.504;2022-11-09T09:59:00;15.90;;;2.42;;
52057;SDS011;38063;53.210;6.504;2022-11-09T10:01:38;7.95;;;2.08;;
52057;SDS011;38063;53.210;6.504;2022-11-09T10:04:13;9.88;;;2.38;;
52057;SDS011;38063;53.210;6.504;2022-11-09T10:12:14;11.80;;;2.15;;
52057;SDS011;38063;53.210;6.504;2022-11-09T10:14:49;13.98;;;2.70;;
52057;SDS011;38063;53.210;6.504;2022-11-09T10:22:48;9.67;;;2.77;;
52057;SDS011;38063;53.210;6.504;2022-11-09T10:25:38;10.13;;;2.60;;
52057;SDS011;38063;53.210;6.504;2022-11-09T10:28:08;10.48;;;2.67;;
52057;SDS011;38063;53.210;6.504;2022-11-09T10:30:38;11.70;;;2.80;;
52057;SDS011;38063;53.210;6.504;2022-11-09T10:35:41;9.63;;;3.05;;
52057;SDS011;38063;53.210;6.504;2022-11-09T10:38:22;13.65;;;3.38;;
52057;SDS011;38063;53.210;6.504;2022-11-09T10:41:00;9.40;;;3.38;;
52057;SDS011;38063;53.210;6.504;2022-11-09T10:43:35;10.48;;;3.28;;
52057;SDS011;38063;53.210;6.504;2022-11-09T10:46:05;16.30;;;3.50;;
52057;SDS011;38063;53.210;6.504;2022-11-09T10:48:36;12.18;;;3.55;;
52057;SDS011;38063;53.210;6.504;2022-11-09T10:51:04;13.20;;;3.33;;
52057;SDS011;38063;53.210;6.504;2022-11-09T10:53:31;14.25;;;3.67;;
52057;SDS011;38063;53.210;6.504;2022-11-09T10:56:04;12.88;;;3.25;;
52057;SDS011;38063;53.210;6.504;2022-11-09T10:58:38;15.88;;;3.50;;
52057;SDS011;38063;53.210;6.504;2022-11-09T11:01:19;12.88;;;3.13;;
52057;SDS011;38063;53.210;6.504;2022-11-09T11:03:50;10.02;;;3.38;;
52057;SDS011;38063;53.210;6.504;2022-11-09T11:08:46;12.25;;;2.97;;
52057;SDS011;38063;53.210;6.504;2022-11-09T11:13:50;12.10;;;3.13;;
52057;SDS011;38063;53.210;6.504;2022-11-09T11:16:31;12.48;;;2.97;;
52057;SDS011;38063;53.210;6.504;2022-11-09T11:19:00;7.10;;;2.90;;
52057;SDS011;38063;53.210;6.504;2022-11-09T11:21:27;13.40;;;2.80;;
52057;SDS011;38063;53.210;6.504;2022-11-09T11:26:48;11.88;;;3.10;;
52057;SDS011;38063;53.210;6.504;2022-11-09T11:32:27;9.23;;;2.78;;
52057;SDS011;38063;53.210;6.504;2022-11-09T11:34:53;14.60;;;3.42;;
52057;SDS011;38063;53.210;6.504;2022-11-09T11:40:07;11.15;;;2.78;;
52057;SDS011;38063;53.210;6.504;2022-11-09T11:42:58;11.50;;;2.93;;
52057;SDS011;38063;53.210;6.504;2022-11-09T11:45:40;14.00;;;3.00;;
52057;SDS011;38063;53.210;6.504;2022-11-09T11:51:07;10.85;;;3.15;;
52057;SDS011;38063;53.210;6.504;2022-11-09T12:02:17;10.77;;;2.75;;
52057;SDS011;38063;53.210;6.504;2022-11-09T12:07:35;17.55;;;3.30;;
52057;SDS011;38063;53.210;6.504;2022-11-09T12:18:18;9.55;;;3.30;;
52057;SDS011;38063;53.210;6.504;2022-11-09T12:29:10;11.57;;;3.15;;
52057;SDS011;38063;53.210;6.504;2022-11-09T12:31:58;11.52;;;3.28;;
52057;SDS011;38063;53.210;6.504;2022-11-09T12:35:04;11.77;;;3.28;;
52057;SDS011;38063;53.210;6.504;2022-11-09T12:37:46;12.70;;;3.25;;
52057;SDS011;38063;53.210;6.504;2022-11-09T12:40:27;10.65;;;2.92;;
52057;SDS011;38063;53.210;6.504;2022-11-09T12:43:02;9.18;;;2.97;;
52057;SDS011;38063;53.210;6.504;2022-11-09T12:45:39;10.20;;;3.45;;
52057;SDS011;38063;53.210;6.504;2022-11-09T12:50:53;11.13;;;3.00;;
52057;SDS011;38063;53.210;6.504;2022-11-09T12:53:20;11.10;;;2.85;;
52057;SDS011;38063;53.210;6.504;2022-11-09T12:56:00;8.95;;;3.75;;
52057;SDS011;38063;53.210;6.504;2022-11-09T12:58:31;13.00;;;2.78;;
52057;SDS011;38063;53.210;6.504;2022-11-09T13:00:58;10.55;;;3.50;;
52057;SDS011;38063;53.210;6.504;2022-11-09T13:03:39;16.23;;;3.97;;
52057;SDS011;38063;53.210;6.504;2022-11-09T13:11:33;8.77;;;3.17;;
52057;SDS011;38063;53.210;6.504;2022-11-09T13:14:26;12.20;;;3.17;;
52057;SDS011;38063;53.210;6.504;2022-11-09T13:16:55;9.30;;;2.97;;
52057;SDS011;38063;53.210;6.504;2022-11-09T13:22:02;11.85;;;3.95;;
52057;SDS011;38063;53.210;6.504;2022-11-09T13:29:57;9.68;;;2.78;;
52057;SDS011;38063;53.210;6.504;2022-11-09T13:34:54;11.15;;;4.05;;
52057;SDS011;38063;53.210;6.504;2022-11-09T13:45:30;6.70;;;2.40;;
52057;SDS011;38063;53.210;6.504;2022-11-09T13:47:59;8.82;;;2.53;;
52057;SDS011;38063;53.210;6.504;2022-11-09T13:50:26;12.80;;;2.83;;
52057;SDS011;38063;53.210;6.504;2022-11-09T13:52:55;7.57;;;2.15;;
52057;SDS011;38063;53.210;6.504;2022-11-09T13:58:13;8.50;;;2.28;;
52057;SDS011;38063;53.210;6.504;2022-11-09T14:05:53;9.52;;;1.98;;
52057;SDS011;38063;53.210;6.504;2022-11-09T14:08:35;6.40;;;2.25;;
52057;SDS011;38063;53.210;6.504;2022-11-09T14:11:07;7.03;;;2.17;;
52057;SDS011;38063;53.210;6.504;2022-11-09T14:22:14;7.50;;;1.73;;
52057;SDS011;38063;53.210;6.504;2022-11-09T14:24:42;6.15;;;1.42;;
52057;SDS011;38063;53.210;6.504;2022-11-09T14:29:34;3.72;;;1.40;;
52057;SDS011;38063;53.210;6.504;2022-11-09T14:32:17;7.50;;;1.38;;
52057;SDS011;38063;53.210;6.504;2022-11-09T14:34:49;4.80;;;1.48;;
52057;SDS011;38063;53.210;6.504;2022-11-09T14:37:14;5.60;;;1.17;;
52057;SDS011;38063;53.210;6.504;2022-11-09T14:39:41;6.57;;;1.58;;
52057;SDS011;38063;53.210;6.504;2022-11-09T14:42:15;5.13;;;1.20;;
52057;SDS011;38063;53.210;6.504;2022-11-09T14:44:43;3.92;;;1.25;;
52057;SDS011;38063;53.210;6.504;2022-11-09T14:47:14;6.90;;;1.50;;
52057;SDS011;38063;53.210;6.504;2022-11-09T14:49:41;5.25;;;1.30;;
52057;SDS011;38063;53.210;6.504;2022-11-09T14:52:11;6.60;;;1.65;;
52057;SDS011;38063;53.210;6.504;2022-11-09T14:54:40;3.75;;;1.30;;
52057;SDS011;38063;53.210;6.504;2022-11-09T14:57:08;10.55;;;1.70;;
52057;SDS011;38063;53.210;6.504;2022-11-09T14:59:37;6.63;;;1.33;;
52057;SDS011;38063;53.210;6.504;2022-11-09T15:02:17;7.22;;;1.50;;
52057;SDS011;38063;53.210;6.504;2022-11-09T15:04:58;5.38;;;1.40;;
52057;SDS011;38063;53.210;6.504;2022-11-09T15:07:26;5.55;;;1.30;;
52057;SDS011;38063;53.210;6.504;2022-11-09T15:09:57;3.85;;;1.50;;
52057;SDS011;38063;53.210;6.504;2022-11-09T15:12:31;7.65;;;1.52;;
52057;SDS011;38063;53.210;6.504;2022-11-09T15:14:58;4.65;;;1.50;;
52057;SDS011;38063;53.210;6.504;2022-11-09T15:27:55;4.60;;;1.80;;
52057;SDS011;38063;53.210;6.504;2022-11-09T15:30:39;7.45;;;1.95;;
52057;SDS011;38063;53.210;6.504;2022-11-09T15:33:26;17.27;;;2.58;;
52057;SDS011;38063;53.210;6.504;2022-11-09T15:40:55;8.77;;;1.90;;
52057;SDS011;38063;53.210;6.504;2022-11-09T15:43:21;9.23;;;2.00;;
52057;SDS011;38063;53.210;6.504;2022-11-09T15:45:46;7.60;;;2.42;;
52057;SDS011;38063;53.210;6.504;2022-11-09T15:48:12;5.90;;;2.22;;
52057;SDS011;38063;53.210;6.504;2022-11-09T15:50:38;6.53;;;2.00;;
52057;SDS011;38063;53.210;6.504;2022-11-09T15:53:04;11.63;;;2.20;;
52057;SDS011;38063;53.210;6.504;2022-11-09T15:55:29;5.75;;;2.47;;
52057;SDS011;38063;53.210;6.504;2022-11-09T15:57:55;8.88;;;2.30;;
52057;SDS011;38063;53.210;6.504;2022-11-09T16:00:21;8.35;;;1.65;;
52057;SDS011;38063;53.210;6.504;2022-11-09T16:02:47;6.95;;;1.88;;
52057;SDS011;38063;53.210;6.504;2022-11-09T16:05:13;4.03;;;1.80;;
52057;SDS011;38063;53.210;6.504;2022-11-09T16:07:46;9.63;;;2.20;;
52057;SDS011;38063;53.210;6.504;2022-11-09T16:10:13;5.97;;;1.48;;
52057;SDS011;38063;53.210;6.504;2022-11-09T16:12:39;10.35;;;2.35;;
52057;SDS011;38063;53.210;6.504;2022-11-09T16:15:05;8.07;;;1.83;;
52057;SDS011;38063;53.210;6.504;2022-11-09T16:17:31;8.63;;;1.77;;
52057;SDS011;38063;53.210;6.504;2022-11-09T16:19:56;7.82;;;1.90;;
52057;SDS011;38063;53.210;6.504;2022-11-09T16:22:22;3.20;;;1.30;;
52057;SDS011;38063;53.210;6.504;2022-11-09T16:24:48;9.32;;;1.58;;
52057;SDS011;38063;53.210;6.504;2022-11-09T16:27:13;6.70;;;1.85;;
52057;SDS011;38063;53.210;6.504;2022-11-09T16:29:39;5.18;;;1.55;;
52057;SDS011;38063;53.210;6.504;2022-11-09T16:32:05;5.53;;;1.38;;
52057;SDS011;38063;53.210;6.504;2022-11-09T16:34:30;10.50;;;1.70;;
52057;SDS011;38063;53.210;6.504;2022-11-09T16:36:56;6.78;;;1.73;;
52057;SDS011;38063;53.210;6.504;2022-11-09T16:39:22;6.55;;;1.80;;
52057;SDS011;38063;53.210;6.504;2022-11-09T16:41:50;9.88;;;2.55;;
52057;SDS011;38063;53.210;6.504;2022-11-09T16:44:17;7.75;;;2.00;;
52057;SDS011;38063;53.210;6.504;2022-11-09T16:46:46;9.25;;;2.22;;
52057;SDS011;38063;53.210;6.504;2022-11-09T16:49:13;7.85;;;2.28;;
52057;SDS011;38063;53.210;6.504;2022-11-09T16:51:38;9.85;;;2.50;;
52057;SDS011;38063;53.210;6.504;2022-11-09T16:54:04;7.53;;;2.17;;
52057;SDS011;38063;53.210;6.504;2022-11-09T16:56:30;11.30;;;2.63;;
52057;SDS011;38063;53.210;6.504;2022-11-09T16:58:57;9.27;;;2.47;;
52057;SDS011;38063;53.210;6.504;2022-11-09T17:01:24;10.30;;;2.80;;